createdAt,value
2023-05-09T00:00:46.870Z,39.17
2023-05-09T00:03:14.567Z,39.21
2023-05-09T00:05:42.132Z,39.18
2023-05-09T00:08:09.394Z,39.26
2023-05-09T00:10:37.047Z,39.37
2023-05-09T00:13:04.228Z,39.32
2023-05-09T00:15:32.320Z,39.27
2023-05-09T00:17:59.555Z,39.53
2023-05-09T00:20:26.761Z,39.50
2023-05-09T00:22:53.761Z,39.65
2023-05-09T00:25:20.926Z,39.45
2023-05-09T00:27:47.952Z,39.55
2023-05-09T00:30:15.095Z,39.75
2023-05-09T00:32:42.259Z,39.88
2023-05-09T00:35:10.390Z,40.01
2023-05-09T00:37:37.547Z,39.76
2023-05-09T00:40:06.677Z,39.99
2023-05-09T00:42:33.877Z,39.95
2023-05-09T00:45:09.244Z,40.16
2023-05-09T00:47:36.595Z,40.33
2023-05-09T00:50:04.015Z,40.41
2023-05-09T00:52:31.147Z,40.41
2023-05-09T00:54:58.248Z,40.57
2023-05-09T00:57:25.379Z,40.72
2023-05-09T00:59:52.506Z,40.69
2023-05-09T01:02:19.711Z,40.86
2023-05-09T01:04:46.982Z,40.85
2023-05-09T01:07:22.761Z,40.95
2023-05-09T01:10:25.529Z,40.88
2023-05-09T01:13:24.580Z,41.03
2023-05-09T01:16:01.864Z,41.12
2023-05-09T01:18:54.662Z,41.25
2023-05-09T01:21:25.901Z,41.34
2023-05-09T01:24:31.311Z,41.37
2023-05-09T01:27:29.139Z,41.66
2023-05-09T01:30:00.221Z,41.50
2023-05-09T01:32:28.668Z,41.43
2023-05-09T01:34:56.891Z,41.58
2023-05-09T01:37:28.380Z,41.51
2023-05-09T01:39:57.469Z,41.71
2023-05-09T01:42:24.451Z,41.56
2023-05-09T01:44:51.453Z,41.72
2023-05-09T01:47:18.615Z,42.06
2023-05-09T01:49:46.308Z,42.02
2023-05-09T01:52:15.929Z,42.25
2023-05-09T01:54:43.275Z,42.22
2023-05-09T01:57:10.361Z,42.11
2023-05-09T01:59:38.072Z,42.41
2023-05-09T02:02:05.096Z,42.50
2023-05-09T02:04:33.111Z,42.29
2023-05-09T02:07:00.159Z,42.49
2023-05-09T02:09:27.334Z,42.61
2023-05-09T02:11:55.334Z,42.47
2023-05-09T02:14:22.439Z,42.71
2023-05-09T02:16:50.086Z,42.82
2023-05-09T02:19:17.667Z,42.78
2023-05-09T02:21:44.762Z,42.86
2023-05-09T02:24:11.907Z,42.92
2023-05-09T02:26:39.057Z,43.09
2023-05-09T02:29:07.415Z,43.28
2023-05-09T02:31:34.474Z,43.36
2023-05-09T02:34:02.557Z,43.44
2023-05-09T02:36:29.726Z,43.48
2023-05-09T02:38:56.744Z,43.61
2023-05-09T02:41:23.899Z,43.74
2023-05-09T02:43:51.025Z,43.79
2023-05-09T02:46:18.232Z,43.99
2023-05-09T02:48:46.321Z,43.95
2023-05-09T02:51:13.368Z,44.20
2023-05-09T02:53:40.782Z,44.15
2023-05-09T02:56:09.026Z,44.30
2023-05-09T02:58:36.138Z,44.30
2023-05-09T03:01:03.357Z,44.44
2023-05-09T03:03:31.262Z,44.55
2023-05-09T03:05:58.319Z,44.73
2023-05-09T03:08:25.660Z,44.58
2023-05-09T03:10:53.142Z,44.31
2023-05-09T03:13:20.654Z,44.16
2023-05-09T03:15:47.869Z,43.95
2023-05-09T03:18:15.011Z,43.95
2023-05-09T03:20:42.210Z,43.79
2023-05-09T03:23:10.406Z,43.75
2023-05-09T03:25:37.533Z,44.10
2023-05-09T03:28:06.328Z,44.05
2023-05-09T03:30:33.625Z,43.89
2023-05-09T03:33:01.703Z,44.10
2023-05-09T03:35:28.853Z,44.07
2023-05-09T03:37:56.185Z,44.07
2023-05-09T03:40:23.449Z,44.26
2023-05-09T03:42:55.478Z,44.40
2023-05-09T03:45:22.777Z,44.56
2023-05-09T03:47:50.047Z,44.73
2023-05-09T03:50:17.121Z,44.56
2023-05-09T03:52:44.549Z,44.54
2023-05-09T03:55:12.944Z,44.66
2023-05-09T03:57:40.160Z,44.71
2023-05-09T04:00:10.558Z,44.65
2023-05-09T04:02:50.235Z,44.53
2023-05-09T04:05:23.675Z,44.62
2023-05-09T04:07:51.164Z,44.77
2023-05-09T04:10:19.908Z,45.01
2023-05-09T04:12:47.103Z,44.83
2023-05-09T04:15:16.132Z,44.82
2023-05-09T04:17:44.533Z,44.94
2023-05-09T04:20:12.652Z,44.83
2023-05-09T04:22:39.748Z,44.94
2023-05-09T04:25:08.692Z,44.63
2023-05-09T04:27:36.178Z,44.78
2023-05-09T04:30:04.033Z,44.30
2023-05-09T04:32:31.906Z,44.26
2023-05-09T04:34:59.082Z,44.32
2023-05-09T04:37:30.875Z,44.06
2023-05-09T04:39:58.858Z,43.71
2023-05-09T04:42:34.044Z,43.60
2023-05-09T04:45:01.426Z,43.56
2023-05-09T04:47:28.783Z,43.32
2023-05-09T04:49:55.865Z,43.10
2023-05-09T04:52:23.084Z,42.96
2023-05-09T04:54:50.139Z,42.86
2023-05-09T04:57:19.510Z,42.83
2023-05-09T04:59:51.169Z,42.68
2023-05-09T05:02:19.141Z,42.61
2023-05-09T05:04:47.185Z,42.25
2023-05-09T05:07:14.860Z,42.24
2023-05-09T05:09:44.085Z,42.26
2023-05-09T05:12:11.375Z,42.19
2023-05-09T05:14:39.458Z,41.78
2023-05-09T05:17:08.549Z,41.80
2023-05-09T05:19:35.990Z,41.58
2023-05-09T05:22:03.490Z,41.08
2023-05-09T05:24:31.144Z,41.16
2023-05-09T05:26:59.245Z,41.04
2023-05-09T05:29:26.470Z,40.74
2023-05-09T05:31:53.592Z,40.70
2023-05-09T05:34:21.242Z,40.68
2023-05-09T05:36:48.567Z,39.91
2023-05-09T05:39:15.808Z,40.02
2023-05-09T05:41:42.903Z,39.61
2023-05-09T05:44:10.607Z,39.93
2023-05-09T05:46:38.123Z,39.76
2023-05-09T05:49:05.505Z,39.54
2023-05-09T05:51:32.878Z,39.44
2023-05-09T05:54:00.177Z,39.49
2023-05-09T05:56:27.290Z,39.20
2023-05-09T05:58:55.276Z,38.74
2023-05-09T06:01:23.122Z,38.01
2023-05-09T06:03:56.128Z,38.05
2023-05-09T06:06:26.791Z,37.78
2023-05-09T06:08:55.608Z,37.42
2023-05-09T06:11:22.788Z,37.23
2023-05-09T06:13:49.707Z,36.95
2023-05-09T06:16:19.880Z,36.36
2023-05-09T06:18:49.290Z,36.02
2023-05-09T06:21:16.419Z,35.81
2023-05-09T06:23:57.824Z,35.37
2023-05-09T06:26:30.486Z,34.84
2023-05-09T06:28:57.614Z,34.57
2023-05-09T06:31:25.602Z,34.58
2023-05-09T06:33:53.273Z,33.90
2023-05-09T06:36:20.351Z,33.50
2023-05-09T06:38:47.355Z,33.48
2023-05-09T06:41:14.370Z,33.49
2023-05-09T06:43:41.344Z,33.65
2023-05-09T06:46:08.387Z,33.70
2023-05-09T06:48:35.446Z,33.08
2023-05-09T06:51:02.450Z,33.18
2023-05-09T06:53:29.428Z,33.06
2023-05-09T06:55:56.379Z,32.16
2023-05-09T06:58:23.382Z,31.06
2023-05-09T07:00:50.842Z,30.67
2023-05-09T07:03:17.800Z,30.61
2023-05-09T07:05:44.769Z,30.85
2023-05-09T07:08:11.771Z,30.19
2023-05-09T07:10:41.614Z,29.47
2023-05-09T07:13:08.684Z,29.87
2023-05-09T07:15:41.986Z,30.08
2023-05-09T07:18:09.941Z,29.63
2023-05-09T07:20:37.028Z,29.20
2023-05-09T07:23:04.595Z,28.64
2023-05-09T07:25:31.905Z,28.19
2023-05-09T07:27:58.932Z,28.23
2023-05-09T07:30:26.075Z,27.36
2023-05-09T07:32:53.191Z,26.80
2023-05-09T07:35:20.606Z,26.25
2023-05-09T07:37:49.352Z,26.04
2023-05-09T07:40:16.688Z,26.55
2023-05-09T07:42:49.727Z,27.18
2023-05-09T07:45:17.846Z,27.02
2023-05-09T07:47:45.976Z,26.36
2023-05-09T07:50:13.046Z,26.26
2023-05-09T07:52:39.991Z,26.55
2023-05-09T07:55:07.667Z,25.86
2023-05-09T07:57:34.728Z,24.84
2023-05-09T08:00:01.779Z,24.15
2023-05-09T08:02:31.299Z,23.93
2023-05-09T08:04:59.449Z,24.29
2023-05-09T08:07:27.341Z,24.75
2023-05-09T08:09:54.448Z,25.09
2023-05-09T08:12:22.484Z,25.10
2023-05-09T08:14:49.604Z,25.02
2023-05-09T08:17:17.073Z,25.41
2023-05-09T08:19:44.049Z,25.46
2023-05-09T08:22:17.659Z,24.71
2023-05-09T08:24:45.734Z,24.11
2023-05-09T08:27:14.100Z,24.21
2023-05-09T08:29:41.461Z,24.45
2023-05-09T08:32:08.693Z,24.61
2023-05-09T08:34:36.546Z,24.45
2023-05-09T08:37:04.178Z,24.22
2023-05-09T08:39:31.544Z,24.50
2023-05-09T08:41:59.539Z,24.65
2023-05-09T08:44:27.054Z,25.06
2023-05-09T08:46:56.821Z,25.21
2023-05-09T08:49:23.839Z,25.42
2023-05-09T08:51:50.836Z,25.13
2023-05-09T08:54:20.789Z,25.00
2023-05-09T08:56:50.837Z,24.66
2023-05-09T08:59:19.784Z,24.89
2023-05-09T09:01:46.949Z,24.89
2023-05-09T09:04:14.160Z,25.23
2023-05-09T09:06:41.185Z,25.21
2023-05-09T09:09:12.144Z,25.13
2023-05-09T09:11:39.315Z,24.79
2023-05-09T09:14:13.365Z,24.43
2023-05-09T09:16:41.853Z,24.54
2023-05-09T09:19:13.705Z,24.63
2023-05-09T09:21:45.702Z,24.53
2023-05-09T09:24:13.571Z,24.42
2023-05-09T09:26:48.395Z,23.78
2023-05-09T09:29:15.647Z,23.50
2023-05-09T09:31:46.582Z,23.10
2023-05-09T09:34:17.402Z,22.20
2023-05-09T09:36:44.344Z,21.88
2023-05-09T09:39:11.653Z,22.12
2023-05-09T09:41:39.003Z,21.95
2023-05-09T09:44:19.428Z,22.36
2023-05-09T09:46:55.926Z,22.59
2023-05-09T09:49:24.115Z,22.11
2023-05-09T09:51:56.239Z,22.18
2023-05-09T09:54:23.402Z,22.06
2023-05-09T09:56:55.198Z,22.38
2023-05-09T09:59:25.132Z,22.68
2023-05-09T10:01:59.723Z,22.91
2023-05-09T10:04:44.879Z,23.21
2023-05-09T10:07:15.048Z,22.92
2023-05-09T10:09:44.212Z,22.61
2023-05-09T10:12:12.307Z,22.26
2023-05-09T10:14:39.235Z,22.31
2023-05-09T10:17:06.435Z,22.54
2023-05-09T10:19:33.565Z,22.36
2023-05-09T10:22:10.182Z,22.28
2023-05-09T10:24:48.456Z,22.39
2023-05-09T10:27:15.725Z,21.98
2023-05-09T10:29:49.817Z,21.86
2023-05-09T10:32:52.771Z,22.34
2023-05-09T10:35:22.254Z,22.69
2023-05-09T10:37:49.692Z,22.46
2023-05-09T10:40:17.066Z,22.54
2023-05-09T10:42:44.593Z,22.78
2023-05-09T10:45:12.830Z,22.64
2023-05-09T10:47:40.440Z,22.70
2023-05-09T10:50:08.586Z,22.57
2023-05-09T11:22:15.866Z,23.75
2023-05-09T11:24:47.449Z,22.86
2023-05-09T11:27:21.787Z,23.06
2023-05-09T11:29:53.405Z,22.98
2023-05-09T11:32:22.724Z,23.12
2023-05-09T11:34:49.886Z,23.01
2023-05-09T11:37:17.920Z,23.02
2023-05-09T11:39:58.904Z,22.82
2023-05-09T11:42:29.090Z,22.67
2023-05-09T11:44:56.922Z,23.03
2023-05-09T11:47:24.276Z,22.53
2023-05-09T11:49:51.629Z,21.88
2023-05-09T11:52:22.236Z,21.58
2023-05-09T11:54:49.827Z,21.49
2023-05-09T11:57:19.850Z,21.45
2023-05-09T11:59:46.861Z,21.28
2023-05-09T12:02:13.942Z,21.33
2023-05-09T12:04:41.005Z,21.24
2023-05-09T12:07:08.060Z,20.99
2023-05-09T12:09:38.357Z,20.98
2023-05-09T12:12:12.392Z,21.26
2023-05-09T12:14:39.916Z,21.40
2023-05-09T12:17:08.202Z,21.95
2023-05-09T12:19:35.225Z,21.87
2023-05-09T12:22:03.938Z,21.94
2023-05-09T12:24:31.465Z,21.80
2023-05-09T12:26:59.516Z,21.75
2023-05-09T12:29:26.507Z,21.56
2023-05-09T12:31:53.909Z,21.47
2023-05-09T12:34:21.891Z,21.93
2023-05-09T12:36:52.078Z,22.24
2023-05-09T12:39:22.053Z,22.57
2023-05-09T12:41:57.905Z,22.31
2023-05-09T12:44:30.728Z,22.55
2023-05-09T12:47:02.248Z,22.30
2023-05-09T12:49:30.704Z,22.57
2023-05-09T12:51:59.150Z,22.77
2023-05-09T12:54:29.841Z,22.92
2023-05-09T12:56:58.469Z,22.88
2023-05-09T12:59:27.104Z,22.68
2023-05-09T13:01:59.102Z,22.82
2023-05-09T13:04:27.715Z,22.95
2023-05-09T13:06:55.925Z,22.95
2023-05-09T13:09:23.592Z,22.61
2023-05-09T13:11:53.193Z,22.38
2023-05-09T13:14:21.914Z,22.18
2023-05-09T13:16:48.945Z,21.90
2023-05-09T13:19:16.543Z,21.40
2023-05-09T13:21:43.627Z,20.70
2023-05-09T13:24:10.722Z,20.14
2023-05-09T13:26:37.758Z,20.12
2023-05-09T13:29:04.789Z,20.06
2023-05-09T13:31:31.801Z,20.19
2023-05-09T13:33:58.857Z,20.84
2023-05-09T13:36:25.810Z,20.85
2023-05-09T13:38:53.793Z,21.11
2023-05-09T13:41:23.960Z,21.28
2023-05-09T13:43:51.192Z,21.73
2023-05-09T13:46:18.317Z,22.24
2023-05-09T13:48:45.348Z,22.61
2023-05-09T13:51:12.396Z,22.68
2023-05-09T13:53:39.459Z,22.60
2023-05-09T13:56:09.417Z,22.72
2023-05-09T13:58:36.715Z,22.68
2023-05-09T14:01:03.680Z,22.49
2023-05-09T14:03:31.973Z,22.58
2023-05-09T14:05:59.793Z,22.40
2023-05-09T14:08:26.882Z,22.31
2023-05-09T14:10:53.928Z,22.03
2023-05-09T14:13:21.011Z,22.29
2023-05-09T14:15:48.128Z,22.59
2023-05-09T14:18:18.389Z,22.67
2023-05-09T14:20:46.478Z,22.47
2023-05-09T14:23:13.663Z,22.24
2023-05-09T14:25:40.659Z,22.35
2023-05-09T14:28:09.619Z,22.47
2023-05-09T14:30:36.803Z,22.60
2023-05-09T14:33:04.015Z,22.87
2023-05-09T14:35:34.223Z,23.17
2023-05-09T14:38:01.741Z,23.46
2023-05-09T14:40:32.252Z,23.32
2023-05-09T14:43:02.558Z,23.26
2023-05-09T14:45:30.427Z,23.33
2023-05-09T14:47:57.820Z,23.41
2023-05-09T14:50:24.848Z,23.34
2023-05-09T14:52:51.889Z,23.14
2023-05-09T14:55:19.536Z,23.19
2023-05-09T14:57:46.571Z,22.89
2023-05-09T15:00:21.226Z,22.98
2023-05-09T15:02:49.979Z,23.41
2023-05-09T15:05:17.324Z,23.17
2023-05-09T15:07:44.397Z,22.92
2023-05-09T15:10:11.532Z,23.07
2023-05-09T15:12:38.594Z,23.05
2023-05-09T15:15:17.579Z,23.21
2023-05-09T15:17:45.008Z,23.37
2023-05-09T15:20:12.749Z,23.17
2023-05-09T15:22:39.769Z,23.08
2023-05-09T15:25:07.275Z,23.01
2023-05-09T15:27:34.184Z,23.12
2023-05-09T15:30:01.171Z,23.25
2023-05-09T15:32:28.636Z,23.35
2023-05-09T15:34:55.631Z,23.42
2023-05-09T15:37:22.581Z,23.72
2023-05-09T15:39:49.560Z,23.58
2023-05-09T15:42:16.627Z,23.52
2023-05-09T15:44:43.731Z,23.53
2023-05-09T15:47:10.937Z,23.80
2023-05-09T15:49:38.000Z,23.98
2023-05-09T15:52:05.839Z,24.25
2023-05-09T15:54:33.652Z,24.39
2023-05-09T15:57:00.922Z,24.67
2023-05-09T15:59:29.608Z,24.80
2023-05-09T16:01:56.697Z,24.82
2023-05-09T16:04:24.663Z,24.72
2023-05-09T16:06:52.258Z,24.73
2023-05-09T16:09:19.617Z,24.70
2023-05-09T16:11:46.637Z,24.99
2023-05-09T16:14:13.922Z,25.10
2023-05-09T16:16:41.134Z,25.20
2023-05-09T16:19:08.784Z,25.19
2023-05-09T16:21:37.831Z,25.28
2023-05-09T16:24:05.488Z,25.12
2023-05-09T16:26:32.525Z,25.07
2023-05-09T16:28:59.558Z,25.32
2023-05-09T16:31:27.548Z,25.68
2023-05-09T16:33:54.743Z,25.80
2023-05-09T16:36:22.125Z,25.89
2023-05-09T16:38:49.158Z,26.09
2023-05-09T16:41:17.608Z,26.04
2023-05-09T16:43:44.721Z,26.08
2023-05-09T16:46:11.908Z,26.36
2023-05-09T16:48:38.886Z,26.51
2023-05-09T16:51:06.116Z,26.49
2023-05-09T16:53:33.108Z,26.51
2023-05-09T16:56:00.336Z,26.58
2023-05-09T16:58:27.457Z,26.63
2023-05-09T17:00:55.405Z,26.59
2023-05-09T17:03:22.436Z,26.80
2023-05-09T17:05:49.442Z,26.95
2023-05-09T17:08:16.429Z,26.93
2023-05-09T17:10:43.443Z,26.95
2023-05-09T17:13:10.706Z,26.88
2023-05-09T17:15:38.592Z,26.99
2023-05-09T17:18:06.650Z,26.96
2023-05-09T17:20:33.764Z,26.98
2023-05-09T17:23:00.791Z,26.98
2023-05-09T17:25:28.285Z,27.53
2023-05-09T17:27:55.300Z,27.84
2023-05-09T17:30:23.173Z,28.24
2023-05-09T17:32:50.813Z,28.46
2023-05-09T17:35:20.155Z,28.52
2023-05-09T17:37:47.206Z,28.76
2023-05-09T17:40:14.996Z,28.86
2023-05-09T17:42:42.434Z,28.96
2023-05-09T17:45:11.433Z,28.96
2023-05-09T17:47:39.272Z,29.16
2023-05-09T17:50:07.412Z,29.28
2023-05-09T17:52:34.435Z,29.57
2023-05-09T17:55:02.008Z,29.54
2023-05-09T17:57:28.946Z,30.00
2023-05-09T17:59:56.016Z,30.11
2023-05-09T18:02:24.285Z,30.23
2023-05-09T18:04:51.788Z,30.46
2023-05-09T18:07:19.490Z,30.58
2023-05-09T18:09:46.531Z,30.61
2023-05-09T18:12:13.647Z,30.68
2023-05-09T18:14:40.693Z,30.80
2023-05-09T18:17:07.762Z,30.96
2023-05-09T18:19:35.673Z,30.91
2023-05-09T18:22:04.019Z,30.94
2023-05-09T18:24:31.123Z,31.00
2023-05-09T18:26:58.059Z,31.23
2023-05-09T18:29:25.045Z,31.42
2023-05-09T18:31:52.100Z,31.67
2023-05-09T18:34:19.296Z,31.84
2023-05-09T18:36:47.792Z,31.96
2023-05-09T18:39:15.217Z,32.15
2023-05-09T18:41:42.783Z,32.23
2023-05-09T18:44:10.091Z,32.17
2023-05-09T18:46:38.520Z,32.48
2023-05-09T18:49:05.746Z,32.32
2023-05-09T18:51:34.354Z,32.33
2023-05-09T18:54:01.662Z,32.39
2023-05-09T18:56:30.664Z,32.47
2023-05-09T18:58:57.702Z,32.56
2023-05-09T19:01:25.826Z,33.00
2023-05-09T19:03:54.470Z,33.14
2023-05-09T19:06:22.291Z,33.32
2023-05-09T19:08:49.407Z,33.69
2023-05-09T19:11:16.436Z,33.81
2023-05-09T19:13:48.714Z,33.99
2023-05-09T19:16:16.347Z,34.13
2023-05-09T19:18:43.485Z,34.16
2023-05-09T19:21:11.122Z,34.00
2023-05-09T19:23:38.308Z,34.03
2023-05-09T19:26:05.342Z,34.06
2023-05-09T19:28:32.801Z,34.03
2023-05-09T19:31:00.880Z,34.17
2023-05-09T19:33:28.206Z,34.10
2023-05-09T19:35:55.579Z,34.20
2023-05-09T19:38:22.933Z,34.15
2023-05-09T19:40:51.120Z,34.10
2023-05-09T19:43:18.220Z,33.96
2023-05-09T19:45:45.534Z,33.91
2023-05-09T19:48:15.850Z,34.28
2023-05-09T19:50:43.493Z,34.47
2023-05-09T19:53:10.714Z,34.55
2023-05-09T19:55:37.773Z,34.86
2023-05-09T19:58:05.172Z,34.90
2023-05-09T20:00:32.695Z,35.12
2023-05-09T20:02:59.997Z,35.36
2023-05-09T20:05:52.959Z,35.69
2023-05-09T20:08:19.777Z,35.72
2023-05-09T20:10:47.080Z,35.84
2023-05-09T20:13:14.179Z,35.52
2023-05-09T20:15:41.230Z,35.47
2023-05-09T20:18:08.617Z,35.42
2023-05-09T20:20:35.764Z,35.63
2023-05-09T20:23:28.051Z,35.95
2023-05-09T20:25:55.722Z,36.35
2023-05-09T20:28:23.384Z,36.68
2023-05-09T20:30:50.365Z,37.04
2023-05-09T20:33:17.350Z,37.25
2023-05-09T20:35:44.143Z,37.39
2023-05-09T20:38:11.844Z,37.59
2023-05-09T20:40:39.410Z,37.95
2023-05-09T20:43:06.465Z,38.07
2023-05-09T20:45:33.276Z,38.31
2023-05-09T20:48:01.764Z,38.38
2023-05-09T20:50:29.231Z,38.55
2023-05-09T20:52:56.248Z,38.47
2023-05-09T20:55:23.071Z,38.43
2023-05-09T20:57:49.946Z,38.61
2023-05-09T21:00:17.045Z,38.82
2023-05-09T21:02:44.287Z,39.12
2023-05-09T21:05:11.284Z,39.20
2023-05-09T21:07:38.289Z,39.49
2023-05-09T21:10:05.780Z,39.67
2023-05-09T21:12:32.892Z,39.67
2023-05-09T21:14:59.730Z,39.66
2023-05-09T21:17:26.677Z,39.82
2023-05-09T21:19:53.543Z,40.12
2023-05-09T21:22:20.379Z,40.38
2023-05-09T21:24:47.235Z,40.42
2023-05-09T21:27:14.469Z,40.48
2023-05-09T21:29:41.288Z,40.34
2023-05-09T21:32:08.174Z,40.27
2023-05-09T21:34:35.611Z,40.55
2023-05-09T21:37:02.409Z,40.72
2023-05-09T21:39:29.242Z,40.86
2023-05-09T21:41:56.047Z,41.00
2023-05-09T21:44:22.836Z,41.28
2023-05-09T21:46:50.012Z,41.53
2023-05-09T21:49:17.106Z,41.64
2023-05-09T21:51:43.918Z,41.60
2023-05-09T21:54:11.143Z,41.63
2023-05-09T21:56:38.030Z,41.75
2023-05-09T21:59:04.949Z,41.82
2023-05-09T22:01:31.953Z,41.96
2023-05-09T22:03:58.924Z,42.15
2023-05-09T22:06:27.238Z,42.47
2023-05-09T22:08:54.206Z,42.76
2023-05-09T22:11:21.496Z,42.88
2023-05-09T22:13:48.409Z,43.07
2023-05-09T22:16:15.388Z,43.03
2023-05-09T22:18:42.413Z,43.08
2023-05-09T22:21:09.509Z,42.90
2023-05-09T22:24:01.865Z,42.93
2023-05-09T22:26:28.773Z,42.73
2023-05-09T22:28:56.136Z,43.07
2023-05-09T22:31:24.551Z,43.09
2023-05-09T22:33:52.177Z,43.24
2023-05-09T22:36:19.871Z,43.23
2023-05-09T22:38:46.853Z,43.45
2023-05-09T22:41:14.369Z,43.27
2023-05-09T22:43:41.727Z,43.29
2023-05-09T22:46:08.935Z,43.62
2023-05-09T22:48:36.030Z,43.54
2023-05-09T22:51:03.496Z,43.87
2023-05-09T22:53:31.040Z,43.90
2023-05-09T22:55:58.072Z,43.90
2023-05-09T22:58:25.230Z,43.80
2023-05-09T23:00:52.220Z,44.02
2023-05-09T23:03:19.321Z,44.06
2023-05-09T23:05:46.374Z,44.08
2023-05-09T23:08:13.321Z,44.18
2023-05-09T23:10:40.300Z,44.26
2023-05-09T23:13:07.912Z,44.70
2023-05-09T23:15:35.485Z,44.81
2023-05-09T23:18:03.370Z,44.96
2023-05-09T23:20:30.508Z,45.22
2023-05-09T23:22:57.737Z,45.61
2023-05-09T23:25:24.742Z,45.58
2023-05-09T23:27:51.704Z,45.79
2023-05-09T23:30:18.824Z,45.77
2023-05-09T23:32:46.141Z,46.06
2023-05-09T23:35:13.316Z,46.04
2023-05-09T23:37:40.370Z,45.89
2023-05-09T23:40:08.152Z,45.82
2023-05-09T23:42:35.139Z,45.77
2023-05-09T23:45:02.448Z,45.87
2023-05-09T23:47:29.471Z,45.83
2023-05-09T23:49:56.464Z,46.03
2023-05-09T23:52:23.452Z,46.16
2023-05-09T23:54:50.662Z,46.05
2023-05-09T23:57:17.709Z,46.15
2023-05-09T23:59:45.148Z,46.03
